ESNBA EETN-EERU
Flight info
| Callsign | ESNBA |
|---|---|
| Flight time | 0h 31m |
| Altitude | 22000 |
| Route | NITSO DCT OSLAX |
| Aircraft | SF50/L-SDGRWY/L |
Departure
| Time | 2026-04-25 21:17 |
|---|---|
| Airport | Lennart Meri Tallinn Airport (EETN) |
Arrival
| Time | 2026-04-25 21:48 |
|---|---|
| Airport | Ruhnu Airfield (EERU) |
| Time | Latitude | Longitude | Altitude | Speed | Heading |
|---|---|---|---|---|---|
| 2026-04-25 20:56 | 59.41572 | 24.82888 | 156 ft | 0 kts | 180° |
| 2026-04-25 21:11 | 59.41566 | 24.82889 | 156 ft | 3 kts | 170° |
| 2026-04-25 21:11 | 59.41561 | 24.82894 | 156 ft | 0 kts | 127° |
| 2026-04-25 21:11 | 59.41559 | 24.82931 | 156 ft | 3 kts | 86° |
| 2026-04-25 21:12 | 59.41559 | 24.82946 | 156 ft | 1 kts | 86° |
| 2026-04-25 21:12 | 59.41559 | 24.82957 | 156 ft | 2 kts | 89° |
| 2026-04-25 21:12 | 59.41560 | 24.83020 | 156 ft | 7 kts | 93° |
| 2026-04-25 21:12 | 59.41558 | 24.83053 | 156 ft | 8 kts | 99° |
| 2026-04-25 21:13 | 59.41500 | 24.83154 | 156 ft | 9 kts | 91° |
| 2026-04-25 21:13 | 59.41499 | 24.83243 | 156 ft | 11 kts | 91° |
| 2026-04-25 21:13 | 59.41501 | 24.83412 | 156 ft | 14 kts | 90° |
| 2026-04-25 21:13 | 59.41498 | 24.83619 | 156 ft | 16 kts | 88° |
| 2026-04-25 21:14 | 59.41498 | 24.83838 | 156 ft | 14 kts | 92° |
| 2026-04-25 21:14 | 59.41500 | 24.84034 | 156 ft | 15 kts | 87° |
| 2026-04-25 21:14 | 59.41498 | 24.84279 | 156 ft | 24 kts | 91° |
| 2026-04-25 21:14 | 59.41497 | 24.84579 | 156 ft | 20 kts | 90° |
| 2026-04-25 21:15 | 59.41496 | 24.84829 | 156 ft | 16 kts | 89° |
| 2026-04-25 21:15 | 59.41469 | 24.84994 | 156 ft | 11 kts | 154° |
| 2026-04-25 21:15 | 59.41407 | 24.85009 | 156 ft | 8 kts | 177° |
| 2026-04-25 21:15 | 59.41356 | 24.85011 | 156 ft | 8 kts | 194° |
| 2026-04-25 21:16 | 59.41320 | 24.84942 | 156 ft | 7 kts | 252° |
| 2026-04-25 21:16 | 59.41321 | 24.84748 | 155 ft | 44 kts | 274° |
| 2026-04-25 21:16 | 59.41324 | 24.83678 | 194 ft | 104 kts | 280° |
| 2026-04-25 21:16 | 59.41350 | 24.82058 | 473 ft | 129 kts | 280° |
| 2026-04-25 21:17 | 59.41347 | 24.80174 | 589 ft | 151 kts | 273° |
| 2026-04-25 21:17 | 59.41313 | 24.78229 | 1300 ft | 128 kts | 281° |
| 2026-04-25 21:17 | 59.41137 | 24.76396 | 1628 ft | 155 kts | 255° |
| 2026-04-25 21:17 | 59.40301 | 24.74804 | 1888 ft | 190 kts | 216° |
| 2026-04-25 21:18 | 59.38890 | 24.74646 | 2141 ft | 213 kts | 172° |
| 2026-04-25 21:18 | 59.37452 | 24.75355 | 2419 ft | 216 kts | 166° |
| 2026-04-25 21:18 | 59.35974 | 24.76033 | 2684 ft | 218 kts | 170° |
| 2026-04-25 21:18 | 59.34456 | 24.76581 | 2921 ft | 232 kts | 171° |
| 2026-04-25 21:19 | 59.32757 | 24.77212 | 3179 ft | 262 kts | 169° |
| 2026-04-25 21:19 | 59.30922 | 24.77933 | 3511 ft | 277 kts | 169° |
| 2026-04-25 21:19 | 59.29004 | 24.78682 | 3884 ft | 283 kts | 169° |
| 2026-04-25 21:19 | 59.27055 | 24.79431 | 4263 ft | 285 kts | 169° |
| 2026-04-25 21:20 | 59.25097 | 24.80185 | 4626 ft | 287 kts | 169° |
| 2026-04-25 21:20 | 59.23796 | 24.80685 | 4879 ft | 285 kts | 169° |
| 2026-04-25 21:20 | 59.21212 | 24.81680 | 5378 ft | 283 kts | 170° |
| 2026-04-25 21:20 | 59.19300 | 24.82420 | 5758 ft | 283 kts | 170° |
| 2026-04-25 21:21 | 59.17361 | 24.83164 | 6138 ft | 282 kts | 171° |
| 2026-04-25 21:21 | 59.15417 | 24.83904 | 6489 ft | 283 kts | 171° |
| 2026-04-25 21:21 | 59.13502 | 24.84638 | 6849 ft | 282 kts | 171° |
| 2026-04-25 21:21 | 59.11567 | 24.85379 | 7210 ft | 282 kts | 171° |
| 2026-04-25 21:22 | 59.09635 | 24.86104 | 7570 ft | 281 kts | 173° |
| 2026-04-25 21:22 | 59.07735 | 24.85693 | 7874 ft | 274 kts | 207° |
| 2026-04-25 21:22 | 59.06183 | 24.83757 | 8222 ft | 265 kts | 223° |
| 2026-04-25 21:22 | 59.04684 | 24.81675 | 8591 ft | 265 kts | 217° |
| 2026-04-25 21:23 | 59.03032 | 24.80013 | 8945 ft | 269 kts | 209° |
| 2026-04-25 21:23 | 59.01305 | 24.78554 | 9305 ft | 271 kts | 209° |
| 2026-04-25 21:23 | 58.99606 | 24.76974 | 9639 ft | 271 kts | 212° |
| 2026-04-25 21:23 | 58.97924 | 24.75322 | 9976 ft | 271 kts | 212° |
| 2026-04-25 21:24 | 58.96249 | 24.73724 | 10304 ft | 271 kts | 211° |
| 2026-04-25 21:24 | 58.94542 | 24.72119 | 10640 ft | 271 kts | 211° |
| 2026-04-25 21:24 | 58.92840 | 24.70506 | 10980 ft | 272 kts | 211° |
| 2026-04-25 21:24 | 58.91140 | 24.68896 | 11325 ft | 271 kts | 211° |
| 2026-04-25 21:25 | 58.89457 | 24.67308 | 11666 ft | 271 kts | 211° |
| 2026-04-25 21:25 | 58.87761 | 24.65708 | 12009 ft | 271 kts | 211° |
| 2026-04-25 21:25 | 58.86062 | 24.64111 | 12356 ft | 270 kts | 211° |
| 2026-04-25 21:25 | 58.84377 | 24.62522 | 12714 ft | 270 kts | 211° |
| 2026-04-25 21:26 | 58.82703 | 24.60948 | 13057 ft | 269 kts | 211° |
| 2026-04-25 21:26 | 58.81019 | 24.59365 | 13388 ft | 269 kts | 211° |
| 2026-04-25 21:26 | 58.79338 | 24.57786 | 13692 ft | 268 kts | 211° |
| 2026-04-25 21:26 | 58.77656 | 24.56211 | 14000 ft | 267 kts | 211° |
| 2026-04-25 21:27 | 58.75985 | 24.54642 | 14312 ft | 266 kts | 211° |
| 2026-04-25 21:27 | 58.74322 | 24.53088 | 14643 ft | 265 kts | 211° |
| 2026-04-25 21:27 | 58.72663 | 24.51541 | 14959 ft | 264 kts | 211° |
| 2026-04-25 21:27 | 58.71035 | 24.50020 | 15271 ft | 263 kts | 211° |
| 2026-04-25 21:28 | 58.69388 | 24.48487 | 15565 ft | 261 kts | 212° |
| 2026-04-25 21:28 | 58.67747 | 24.46959 | 15884 ft | 260 kts | 211° |
| 2026-04-25 21:28 | 58.66143 | 24.45466 | 16198 ft | 259 kts | 212° |
| 2026-04-25 21:28 | 58.64528 | 24.43960 | 16526 ft | 257 kts | 212° |
| 2026-04-25 21:29 | 58.62914 | 24.42462 | 16843 ft | 256 kts | 212° |
| 2026-04-25 21:29 | 58.61316 | 24.40976 | 17159 ft | 255 kts | 211° |
| 2026-04-25 21:29 | 58.59725 | 24.39506 | 17476 ft | 253 kts | 212° |
| 2026-04-25 21:29 | 58.58137 | 24.38038 | 17788 ft | 252 kts | 212° |
| 2026-04-25 21:30 | 58.56580 | 24.36594 | 18049 ft | 251 kts | 211° |
| 2026-04-25 21:30 | 58.55006 | 24.35142 | 18313 ft | 250 kts | 211° |
| 2026-04-25 21:30 | 58.53441 | 24.33698 | 18586 ft | 250 kts | 212° |
| 2026-04-25 21:30 | 58.52402 | 24.32738 | 18761 ft | 249 kts | 212° |
| 2026-04-25 21:31 | 58.50313 | 24.30812 | 19111 ft | 249 kts | 212° |
| 2026-04-25 21:31 | 58.48769 | 24.29400 | 19369 ft | 248 kts | 212° |
| 2026-04-25 21:31 | 58.47212 | 24.27961 | 19632 ft | 248 kts | 212° |
| 2026-04-25 21:31 | 58.45653 | 24.26528 | 19895 ft | 248 kts | 212° |
| 2026-04-25 21:32 | 58.44099 | 24.25102 | 20149 ft | 247 kts | 212° |
| 2026-04-25 21:32 | 58.42545 | 24.23679 | 20411 ft | 247 kts | 213° |
| 2026-04-25 21:32 | 58.41002 | 24.22261 | 20670 ft | 246 kts | 212° |
| 2026-04-25 21:32 | 58.39474 | 24.20867 | 20925 ft | 246 kts | 212° |
| 2026-04-25 21:33 | 58.37928 | 24.19454 | 21185 ft | 246 kts | 212° |
| 2026-04-25 21:33 | 58.36380 | 24.18044 | 21444 ft | 246 kts | 213° |
| 2026-04-25 21:33 | 58.34818 | 24.16616 | 21514 ft | 253 kts | 211° |
| 2026-04-25 21:33 | 58.33202 | 24.15137 | 21535 ft | 261 kts | 211° |
| 2026-04-25 21:34 | 58.31562 | 24.13645 | 21536 ft | 267 kts | 212° |
| 2026-04-25 21:34 | 58.29852 | 24.12090 | 21538 ft | 274 kts | 212° |
| 2026-04-25 21:34 | 58.28132 | 24.10527 | 21537 ft | 280 kts | 211° |
| 2026-04-25 21:34 | 58.26347 | 24.08909 | 21537 ft | 286 kts | 211° |
| 2026-04-25 21:35 | 58.24526 | 24.07261 | 21536 ft | 291 kts | 211° |
| 2026-04-25 21:35 | 58.22686 | 24.05593 | 21555 ft | 294 kts | 211° |
| 2026-04-25 21:35 | 58.20831 | 24.03917 | 21555 ft | 296 kts | 211° |
| 2026-04-25 21:35 | 58.18982 | 24.02249 | 21554 ft | 298 kts | 210° |
| 2026-04-25 21:36 | 58.17101 | 24.00550 | 21542 ft | 299 kts | 211° |
| 2026-04-25 21:36 | 58.15215 | 23.98851 | 21543 ft | 300 kts | 213° |
| 2026-04-25 21:36 | 58.13325 | 23.97157 | 21555 ft | 300 kts | 211° |
| 2026-04-25 21:36 | 58.11456 | 23.95473 | 21556 ft | 300 kts | 211° |
| 2026-04-25 21:37 | 58.09559 | 23.93768 | 21550 ft | 301 kts | 211° |
| 2026-04-25 21:37 | 58.08280 | 23.92616 | 21130 ft | 311 kts | 211° |
| 2026-04-25 21:37 | 58.05765 | 23.90363 | 19035 ft | 301 kts | 213° |
| 2026-04-25 21:37 | 58.03999 | 23.88483 | 18402 ft | 284 kts | 223° |
| 2026-04-25 21:38 | 58.02504 | 23.86004 | 17922 ft | 286 kts | 233° |
| 2026-04-25 21:38 | 58.01265 | 23.83061 | 17357 ft | 287 kts | 238° |
| 2026-04-25 21:38 | 58.00065 | 23.80037 | 16848 ft | 285 kts | 239° |
| 2026-04-25 21:38 | 57.98858 | 23.77061 | 16430 ft | 287 kts | 238° |
| 2026-04-25 21:39 | 57.97647 | 23.74060 | 16021 ft | 288 kts | 240° |
| 2026-04-25 21:39 | 57.96448 | 23.71079 | 15611 ft | 284 kts | 238° |
| 2026-04-25 21:39 | 57.95258 | 23.68114 | 15217 ft | 283 kts | 240° |
| 2026-04-25 21:39 | 57.94096 | 23.65236 | 14799 ft | 276 kts | 239° |
| 2026-04-25 21:40 | 57.92926 | 23.62336 | 14408 ft | 277 kts | 240° |
| 2026-04-25 21:40 | 57.91759 | 23.59446 | 14020 ft | 276 kts | 239° |
| 2026-04-25 21:40 | 57.90590 | 23.56554 | 13530 ft | 278 kts | 239° |
| 2026-04-25 21:40 | 57.89439 | 23.53721 | 12858 ft | 273 kts | 239° |
| 2026-04-25 21:41 | 57.88294 | 23.50898 | 12164 ft | 270 kts | 240° |
| 2026-04-25 21:41 | 57.87162 | 23.48106 | 11486 ft | 267 kts | 240° |
| 2026-04-25 21:41 | 57.86045 | 23.45352 | 10834 ft | 268 kts | 240° |
| 2026-04-25 21:41 | 57.84911 | 23.42572 | 10175 ft | 265 kts | 240° |
| 2026-04-25 21:42 | 57.83926 | 23.39883 | 8719 ft | 238 kts | 250° |
| 2026-04-25 21:42 | 57.82879 | 23.37491 | 7154 ft | 250 kts | 224° |
| 2026-04-25 21:42 | 57.81180 | 23.36545 | 6056 ft | 259 kts | 184° |
| 2026-04-25 21:42 | 57.79540 | 23.37511 | 5439 ft | 240 kts | 154° |
| 2026-04-25 21:43 | 57.78082 | 23.38719 | 5147 ft | 217 kts | 154° |
| 2026-04-25 21:43 | 57.76759 | 23.39894 | 4856 ft | 206 kts | 154° |
| 2026-04-25 21:43 | 57.75424 | 23.40815 | 4360 ft | 201 kts | 164° |
| 2026-04-25 21:43 | 57.74086 | 23.41523 | 3394 ft | 200 kts | 167° |
| 2026-04-25 21:44 | 57.72749 | 23.41391 | 2423 ft | 186 kts | 212° |
| 2026-04-25 21:44 | 57.71656 | 23.40358 | 1585 ft | 173 kts | 219° |
| 2026-04-25 21:44 | 57.71053 | 23.37496 | 1101 ft | 120 kts | 315° |
| 2026-04-25 21:45 | 57.71679 | 23.36430 | 1124 ft | 123 kts | 319° |
| 2026-04-25 21:45 | 57.72087 | 23.35715 | 1115 ft | 120 kts | 319° |
| 2026-04-25 21:45 | 57.72920 | 23.34263 | 1117 ft | 121 kts | 319° |
| 2026-04-25 21:45 | 57.73534 | 23.33191 | 1115 ft | 123 kts | 319° |
| 2026-04-25 21:46 | 57.74115 | 23.32178 | 1111 ft | 104 kts | 319° |
| 2026-04-25 21:46 | 57.74601 | 23.31358 | 867 ft | 91 kts | 322° |
| 2026-04-25 21:46 | 57.75136 | 23.30723 | 612 ft | 98 kts | 326° |
| 2026-04-25 21:46 | 57.75705 | 23.30111 | 635 ft | 90 kts | 327° |
| 2026-04-25 21:47 | 57.76254 | 23.29354 | 454 ft | 102 kts | 322° |
| 2026-04-25 21:47 | 57.76832 | 23.28492 | 393 ft | 108 kts | 318° |
| 2026-04-25 21:47 | 57.77425 | 23.27723 | 314 ft | 100 kts | 328° |
| 2026-04-25 21:47 | 57.77940 | 23.27106 | 108 ft | 87 kts | 324° |
| 2026-04-25 21:48 | 57.78408 | 23.26474 | 19 ft | 66 kts | 324° |
| 2026-04-25 21:48 | 57.78552 | 23.26206 | 10 ft | 1 kts | 209° |
| 2026-04-25 21:48 | 57.78530 | 23.26289 | 10 ft | 12 kts | 132° |
| 2026-04-25 21:48 | 57.78466 | 23.26384 | 14 ft | 14 kts | 143° |
| 2026-04-25 21:49 | 57.78391 | 23.26527 | 14 ft | 13 kts | 64° |
| 2026-04-25 21:49 | 57.78405 | 23.26576 | 14 ft | 0 kts | 50° |